sensor_id;sensor_type;location;lat;lon;timestamp;P1;durP1;ratioP1;P2;durP2;ratioP2
31368;SDS011;18004;48.416;10.066;2023-07-28T00:02:10;4.10;;;3.17;;
31368;SDS011;18004;48.416;10.066;2023-07-28T00:04:36;6.82;;;3.13;;
31368;SDS011;18004;48.416;10.066;2023-07-28T00:07:03;4.20;;;3.03;;
31368;SDS011;18004;48.416;10.066;2023-07-28T00:09:29;3.88;;;2.50;;
31368;SDS011;18004;48.416;10.066;2023-07-28T00:11:58;5.70;;;2.65;;
31368;SDS011;18004;48.416;10.066;2023-07-28T00:14:25;2.72;;;2.10;;
31368;SDS011;18004;48.416;10.066;2023-07-28T00:16:52;6.18;;;2.15;;
31368;SDS011;18004;48.416;10.066;2023-07-28T00:19:19;3.50;;;2.03;;
31368;SDS011;18004;48.416;10.066;2023-07-28T00:21:48;2.92;;;1.88;;
31368;SDS011;18004;48.416;10.066;2023-07-28T00:24:15;2.75;;;1.67;;
31368;SDS011;18004;48.416;10.066;2023-07-28T00:26:41;2.65;;;1.90;;
31368;SDS011;18004;48.416;10.066;2023-07-28T00:29:06;3.08;;;2.28;;
31368;SDS011;18004;48.416;10.066;2023-07-28T00:31:32;2.42;;;1.95;;
31368;SDS011;18004;48.416;10.066;2023-07-28T00:33:59;4.20;;;1.90;;
31368;SDS011;18004;48.416;10.066;2023-07-28T00:36:25;2.60;;;1.90;;
31368;SDS011;18004;48.416;10.066;2023-07-28T00:38:50;2.88;;;2.08;;
31368;SDS011;18004;48.416;10.066;2023-07-28T00:41:16;5.53;;;2.30;;
31368;SDS011;18004;48.416;10.066;2023-07-28T00:43:42;3.33;;;2.03;;
31368;SDS011;18004;48.416;10.066;2023-07-28T00:46:08;5.78;;;2.30;;
31368;SDS011;18004;48.416;10.066;2023-07-28T00:48:35;8.07;;;2.58;;
31368;SDS011;18004;48.416;10.066;2023-07-28T00:51:01;3.60;;;2.10;;
31368;SDS011;18004;48.416;10.066;2023-07-28T00:53:28;2.60;;;2.20;;
31368;SDS011;18004;48.416;10.066;2023-07-28T00:55:54;4.43;;;2.42;;
31368;SDS011;18004;48.416;10.066;2023-07-28T00:58:21;2.35;;;2.15;;
31368;SDS011;18004;48.416;10.066;2023-07-28T01:00:47;9.10;;;2.45;;
31368;SDS011;18004;48.416;10.066;2023-07-28T01:03:13;4.57;;;2.22;;
31368;SDS011;18004;48.416;10.066;2023-07-28T01:05:47;4.88;;;2.42;;
31368;SDS011;18004;48.416;10.066;2023-07-28T01:08:38;4.15;;;2.10;;
31368;SDS011;18004;48.416;10.066;2023-07-28T01:11:11;2.97;;;2.25;;
31368;SDS011;18004;48.416;10.066;2023-07-28T01:13:37;3.42;;;2.17;;
31368;SDS011;18004;48.416;10.066;2023-07-28T01:16:03;3.17;;;2.33;;
31368;SDS011;18004;48.416;10.066;2023-07-28T01:18:29;4.53;;;2.42;;
31368;SDS011;18004;48.416;10.066;2023-07-28T01:20:55;3.20;;;2.45;;
31368;SDS011;18004;48.416;10.066;2023-07-28T01:23:36;2.97;;;2.35;;
31368;SDS011;18004;48.416;10.066;2023-07-28T01:26:05;3.55;;;2.35;;
31368;SDS011;18004;48.416;10.066;2023-07-28T01:31:05;8.15;;;2.60;;
31368;SDS011;18004;48.416;10.066;2023-07-28T01:33:32;6.47;;;2.42;;
31368;SDS011;18004;48.416;10.066;2023-07-28T01:35:58;6.38;;;2.40;;
31368;SDS011;18004;48.416;10.066;2023-07-28T01:38:26;3.45;;;2.85;;
31368;SDS011;18004;48.416;10.066;2023-07-28T01:40:52;5.20;;;2.55;;
31368;SDS011;18004;48.416;10.066;2023-07-28T01:43:18;3.03;;;2.30;;
31368;SDS011;18004;48.416;10.066;2023-07-28T01:45:44;6.82;;;3.15;;
31368;SDS011;18004;48.416;10.066;2023-07-28T01:48:10;4.07;;;3.22;;
31368;SDS011;18004;48.416;10.066;2023-07-28T01:50:36;3.38;;;2.60;;
31368;SDS011;18004;48.416;10.066;2023-07-28T01:53:02;4.20;;;2.85;;
31368;SDS011;18004;48.416;10.066;2023-07-28T01:55:29;5.50;;;2.85;;
31368;SDS011;18004;48.416;10.066;2023-07-28T01:57:55;4.13;;;2.97;;
31368;SDS011;18004;48.416;10.066;2023-07-28T02:00:23;3.95;;;2.40;;
31368;SDS011;18004;48.416;10.066;2023-07-28T02:02:49;2.75;;;2.25;;
31368;SDS011;18004;48.416;10.066;2023-07-28T02:05:15;5.88;;;2.85;;
31368;SDS011;18004;48.416;10.066;2023-07-28T02:07:41;3.20;;;2.38;;
31368;SDS011;18004;48.416;10.066;2023-07-28T02:10:07;3.10;;;2.75;;
31368;SDS011;18004;48.416;10.066;2023-07-28T02:12:33;5.82;;;3.20;;
31368;SDS011;18004;48.416;10.066;2023-07-28T02:14:59;4.35;;;3.30;;
31368;SDS011;18004;48.416;10.066;2023-07-28T02:17:25;4.28;;;2.67;;
31368;SDS011;18004;48.416;10.066;2023-07-28T02:19:51;5.07;;;2.70;;
31368;SDS011;18004;48.416;10.066;2023-07-28T02:22:17;3.17;;;2.33;;
31368;SDS011;18004;48.416;10.066;2023-07-28T02:24:42;4.43;;;2.85;;
31368;SDS011;18004;48.416;10.066;2023-07-28T02:27:08;4.80;;;2.45;;
31368;SDS011;18004;48.416;10.066;2023-07-28T02:29:34;3.08;;;2.53;;
31368;SDS011;18004;48.416;10.066;2023-07-28T02:31:59;4.00;;;3.20;;
31368;SDS011;18004;48.416;10.066;2023-07-28T02:34:25;4.85;;;2.83;;
31368;SDS011;18004;48.416;10.066;2023-07-28T02:36:51;6.28;;;3.30;;
31368;SDS011;18004;48.416;10.066;2023-07-28T02:39:16;8.40;;;3.05;;
31368;SDS011;18004;48.416;10.066;2023-07-28T02:41:42;8.00;;;2.95;;
31368;SDS011;18004;48.416;10.066;2023-07-28T02:44:08;5.82;;;2.78;;
31368;SDS011;18004;48.416;10.066;2023-07-28T02:46:34;3.78;;;2.72;;
31368;SDS011;18004;48.416;10.066;2023-07-28T02:49:00;6.38;;;3.33;;
31368;SDS011;18004;48.416;10.066;2023-07-28T02:51:28;4.43;;;2.63;;
31368;SDS011;18004;48.416;10.066;2023-07-28T02:53:54;4.90;;;3.05;;
31368;SDS011;18004;48.416;10.066;2023-07-28T02:56:20;3.45;;;3.08;;
31368;SDS011;18004;48.416;10.066;2023-07-28T02:58:48;5.55;;;3.05;;
31368;SDS011;18004;48.416;10.066;2023-07-28T03:01:14;5.82;;;3.75;;
31368;SDS011;18004;48.416;10.066;2023-07-28T03:03:40;6.03;;;4.30;;
31368;SDS011;18004;48.416;10.066;2023-07-28T03:06:05;4.88;;;3.55;;
31368;SDS011;18004;48.416;10.066;2023-07-28T03:08:31;4.82;;;3.42;;
31368;SDS011;18004;48.416;10.066;2023-07-28T03:10:57;6.03;;;3.42;;
31368;SDS011;18004;48.416;10.066;2023-07-28T03:13:23;5.60;;;3.03;;
31368;SDS011;18004;48.416;10.066;2023-07-28T03:15:49;7.57;;;3.03;;
31368;SDS011;18004;48.416;10.066;2023-07-28T03:18:15;4.72;;;3.10;;
31368;SDS011;18004;48.416;10.066;2023-07-28T03:20:41;5.53;;;3.72;;
31368;SDS011;18004;48.416;10.066;2023-07-28T03:23:06;7.70;;;3.60;;
31368;SDS011;18004;48.416;10.066;2023-07-28T03:25:32;6.35;;;3.45;;
31368;SDS011;18004;48.416;10.066;2023-07-28T03:27:58;6.35;;;3.08;;
31368;SDS011;18004;48.416;10.066;2023-07-28T03:30:24;4.40;;;3.10;;
31368;SDS011;18004;48.416;10.066;2023-07-28T03:32:49;3.55;;;3.15;;
31368;SDS011;18004;48.416;10.066;2023-07-28T03:35:15;3.50;;;2.50;;
31368;SDS011;18004;48.416;10.066;2023-07-28T03:37:41;4.70;;;3.47;;
31368;SDS011;18004;48.416;10.066;2023-07-28T03:40:07;4.25;;;3.20;;
31368;SDS011;18004;48.416;10.066;2023-07-28T03:42:33;6.20;;;3.70;;
31368;SDS011;18004;48.416;10.066;2023-07-28T03:44:59;6.80;;;3.35;;
31368;SDS011;18004;48.416;10.066;2023-07-28T03:47:25;5.57;;;3.33;;
31368;SDS011;18004;48.416;10.066;2023-07-28T03:49:50;6.10;;;2.70;;
31368;SDS011;18004;48.416;10.066;2023-07-28T03:52:16;4.93;;;3.03;;
31368;SDS011;18004;48.416;10.066;2023-07-28T03:54:42;4.90;;;3.03;;
31368;SDS011;18004;48.416;10.066;2023-07-28T03:57:08;4.53;;;3.00;;
31368;SDS011;18004;48.416;10.066;2023-07-28T03:59:35;3.45;;;2.88;;
31368;SDS011;18004;48.416;10.066;2023-07-28T04:02:00;6.72;;;3.10;;
31368;SDS011;18004;48.416;10.066;2023-07-28T04:04:26;4.20;;;3.08;;
31368;SDS011;18004;48.416;10.066;2023-07-28T04:06:52;4.30;;;2.97;;
31368;SDS011;18004;48.416;10.066;2023-07-28T04:09:19;5.03;;;3.25;;
31368;SDS011;18004;48.416;10.066;2023-07-28T04:11:45;3.45;;;2.75;;
31368;SDS011;18004;48.416;10.066;2023-07-28T04:14:11;7.93;;;3.58;;
31368;SDS011;18004;48.416;10.066;2023-07-28T04:16:37;2.88;;;2.58;;
31368;SDS011;18004;48.416;10.066;2023-07-28T04:19:03;3.78;;;2.70;;
31368;SDS011;18004;48.416;10.066;2023-07-28T04:21:29;3.55;;;2.38;;
31368;SDS011;18004;48.416;10.066;2023-07-28T04:23:55;3.67;;;2.80;;
31368;SDS011;18004;48.416;10.066;2023-07-28T04:26:21;4.28;;;3.22;;
31368;SDS011;18004;48.416;10.066;2023-07-28T04:28:48;5.90;;;3.25;;
31368;SDS011;18004;48.416;10.066;2023-07-28T04:31:13;4.22;;;3.35;;
31368;SDS011;18004;48.416;10.066;2023-07-28T04:33:42;22.45;;;12.38;;
31368;SDS011;18004;48.416;10.066;2023-07-28T04:36:08;17.05;;;12.23;;
31368;SDS011;18004;48.416;10.066;2023-07-28T04:38:34;25.50;;;11.65;;
31368;SDS011;18004;48.416;10.066;2023-07-28T04:41:00;13.05;;;9.32;;
31368;SDS011;18004;48.416;10.066;2023-07-28T04:43:26;10.93;;;7.82;;
31368;SDS011;18004;48.416;10.066;2023-07-28T04:45:52;12.88;;;7.10;;
31368;SDS011;18004;48.416;10.066;2023-07-28T04:48:17;10.25;;;8.02;;
31368;SDS011;18004;48.416;10.066;2023-07-28T04:50:44;13.77;;;9.15;;
31368;SDS011;18004;48.416;10.066;2023-07-28T04:53:10;18.98;;;11.63;;
31368;SDS011;18004;48.416;10.066;2023-07-28T04:55:35;18.02;;;10.60;;
31368;SDS011;18004;48.416;10.066;2023-07-28T04:58:01;15.00;;;10.70;;
31368;SDS011;18004;48.416;10.066;2023-07-28T05:00:27;18.90;;;9.88;;
31368;SDS011;18004;48.416;10.066;2023-07-28T05:02:53;17.33;;;8.95;;
31368;SDS011;18004;48.416;10.066;2023-07-28T05:05:19;8.57;;;6.25;;
31368;SDS011;18004;48.416;10.066;2023-07-28T05:07:45;7.25;;;4.78;;
31368;SDS011;18004;48.416;10.066;2023-07-28T05:10:11;6.88;;;3.58;;
31368;SDS011;18004;48.416;10.066;2023-07-28T05:12:37;10.13;;;3.95;;
31368;SDS011;18004;48.416;10.066;2023-07-28T05:15:04;4.60;;;3.13;;
31368;SDS011;18004;48.416;10.066;2023-07-28T05:17:30;5.93;;;3.05;;
31368;SDS011;18004;48.416;10.066;2023-07-28T05:19:56;4.25;;;3.30;;
31368;SDS011;18004;48.416;10.066;2023-07-28T05:22:22;6.80;;;3.42;;
31368;SDS011;18004;48.416;10.066;2023-07-28T05:24:47;6.45;;;3.80;;
31368;SDS011;18004;48.416;10.066;2023-07-28T05:27:13;5.72;;;3.78;;
31368;SDS011;18004;48.416;10.066;2023-07-28T05:29:39;5.70;;;4.40;;
31368;SDS011;18004;48.416;10.066;2023-07-28T05:32:05;6.68;;;3.97;;
31368;SDS011;18004;48.416;10.066;2023-07-28T05:34:31;6.45;;;3.85;;
31368;SDS011;18004;48.416;10.066;2023-07-28T05:36:57;6.03;;;3.28;;
31368;SDS011;18004;48.416;10.066;2023-07-28T05:39:23;3.85;;;2.83;;
31368;SDS011;18004;48.416;10.066;2023-07-28T05:41:49;9.75;;;5.03;;
31368;SDS011;18004;48.416;10.066;2023-07-28T05:44:14;14.27;;;8.57;;
31368;SDS011;18004;48.416;10.066;2023-07-28T05:46:40;20.13;;;10.07;;
31368;SDS011;18004;48.416;10.066;2023-07-28T05:49:06;23.63;;;12.85;;
31368;SDS011;18004;48.416;10.066;2023-07-28T05:51:31;11.43;;;7.97;;
31368;SDS011;18004;48.416;10.066;2023-07-28T05:53:57;5.43;;;3.67;;
31368;SDS011;18004;48.416;10.066;2023-07-28T05:56:23;2.88;;;2.53;;
31368;SDS011;18004;48.416;10.066;2023-07-28T05:58:49;3.33;;;2.35;;
31368;SDS011;18004;48.416;10.066;2023-07-28T06:01:15;2.72;;;2.20;;
31368;SDS011;18004;48.416;10.066;2023-07-28T06:03:41;2.47;;;1.92;;
31368;SDS011;18004;48.416;10.066;2023-07-28T06:06:07;4.63;;;2.60;;
31368;SDS011;18004;48.416;10.066;2023-07-28T06:08:33;3.22;;;1.92;;
31368;SDS011;18004;48.416;10.066;2023-07-28T06:10:59;3.25;;;2.00;;
31368;SDS011;18004;48.416;10.066;2023-07-28T06:13:25;4.97;;;2.30;;
31368;SDS011;18004;48.416;10.066;2023-07-28T06:15:52;2.67;;;1.90;;
31368;SDS011;18004;48.416;10.066;2023-07-28T06:18:19;2.63;;;1.80;;
31368;SDS011;18004;48.416;10.066;2023-07-28T06:20:47;3.47;;;2.15;;
31368;SDS011;18004;48.416;10.066;2023-07-28T06:23:13;5.05;;;3.22;;
31368;SDS011;18004;48.416;10.066;2023-07-28T06:25:39;4.65;;;3.35;;
31368;SDS011;18004;48.416;10.066;2023-07-28T06:28:09;10.07;;;4.55;;
31368;SDS011;18004;48.416;10.066;2023-07-28T06:30:36;5.95;;;4.25;;
31368;SDS011;18004;48.416;10.066;2023-07-28T06:33:03;7.32;;;4.45;;
31368;SDS011;18004;48.416;10.066;2023-07-28T06:35:30;6.68;;;3.83;;
31368;SDS011;18004;48.416;10.066;2023-07-28T06:37:56;6.20;;;4.43;;
31368;SDS011;18004;48.416;10.066;2023-07-28T06:40:22;11.50;;;4.50;;
31368;SDS011;18004;48.416;10.066;2023-07-28T06:42:48;12.82;;;4.82;;
31368;SDS011;18004;48.416;10.066;2023-07-28T06:45:13;8.02;;;5.47;;
31368;SDS011;18004;48.416;10.066;2023-07-28T06:47:39;10.73;;;6.13;;
31368;SDS011;18004;48.416;10.066;2023-07-28T06:50:05;6.32;;;3.00;;
31368;SDS011;18004;48.416;10.066;2023-07-28T06:52:31;3.00;;;2.55;;
31368;SDS011;18004;48.416;10.066;2023-07-28T06:54:57;5.22;;;2.70;;
31368;SDS011;18004;48.416;10.066;2023-07-28T06:57:23;4.00;;;2.17;;
31368;SDS011;18004;48.416;10.066;2023-07-28T06:59:49;2.40;;;1.88;;
31368;SDS011;18004;48.416;10.066;2023-07-28T07:02:15;3.30;;;2.03;;
31368;SDS011;18004;48.416;10.066;2023-07-28T07:04:42;4.53;;;2.55;;
31368;SDS011;18004;48.416;10.066;2023-07-28T07:07:10;2.20;;;1.92;;
31368;SDS011;18004;48.416;10.066;2023-07-28T07:13:44;6.55;;;1.85;;
31368;SDS011;18004;48.416;10.066;2023-07-28T07:24:30;3.03;;;2.00;;
31368;SDS011;18004;48.416;10.066;2023-07-28T07:28:14;7.88;;;3.78;;
31368;SDS011;18004;48.416;10.066;2023-07-28T07:38:37;9.93;;;4.88;;
31368;SDS011;18004;48.416;10.066;2023-07-28T07:41:44;10.80;;;5.78;;
31368;SDS011;18004;48.416;10.066;2023-07-28T07:44:10;12.18;;;5.88;;
31368;SDS011;18004;48.416;10.066;2023-07-28T07:46:36;8.82;;;6.38;;
31368;SDS011;18004;48.416;10.066;2023-07-28T07:50:08;13.02;;;6.60;;
31368;SDS011;18004;48.416;10.066;2023-07-28T07:52:44;9.27;;;5.75;;
31368;SDS011;18004;48.416;10.066;2023-07-28T07:57:18;8.23;;;3.25;;
31368;SDS011;18004;48.416;10.066;2023-07-28T08:11:14;4.78;;;2.70;;
31368;SDS011;18004;48.416;10.066;2023-07-28T08:29:21;2.38;;;1.90;;
31368;SDS011;18004;48.416;10.066;2023-07-28T08:32:14;6.18;;;2.05;;
31368;SDS011;18004;48.416;10.066;2023-07-28T08:34:47;3.05;;;1.60;;
31368;SDS011;18004;48.416;10.066;2023-07-28T08:37:13;4.90;;;2.35;;
31368;SDS011;18004;48.416;10.066;2023-07-28T08:39:39;4.72;;;1.90;;
31368;SDS011;18004;48.416;10.066;2023-07-28T08:42:15;2.38;;;1.60;;
31368;SDS011;18004;48.416;10.066;2023-07-28T08:44:41;2.50;;;1.67;;
31368;SDS011;18004;48.416;10.066;2023-07-28T08:47:07;3.45;;;2.03;;
31368;SDS011;18004;48.416;10.066;2023-07-28T08:49:33;1.67;;;1.50;;
31368;SDS011;18004;48.416;10.066;2023-07-28T08:52:04;4.60;;;1.58;;
31368;SDS011;18004;48.416;10.066;2023-07-28T08:54:30;5.72;;;1.88;;
31368;SDS011;18004;48.416;10.066;2023-07-28T08:56:59;3.75;;;1.33;;
31368;SDS011;18004;48.416;10.066;2023-07-28T08:59:25;3.42;;;1.95;;
31368;SDS011;18004;48.416;10.066;2023-07-28T09:01:53;2.80;;;1.38;;
31368;SDS011;18004;48.416;10.066;2023-07-28T09:04:23;1.77;;;1.30;;
31368;SDS011;18004;48.416;10.066;2023-07-28T09:06:49;2.10;;;1.20;;
31368;SDS011;18004;48.416;10.066;2023-07-28T09:09:18;3.85;;;1.40;;
31368;SDS011;18004;48.416;10.066;2023-07-28T09:12:03;5.28;;;1.40;;
31368;SDS011;18004;48.416;10.066;2023-07-28T09:14:37;1.08;;;0.98;;
31368;SDS011;18004;48.416;10.066;2023-07-28T09:17:13;3.92;;;1.58;;
31368;SDS011;18004;48.416;10.066;2023-07-28T09:19:55;2.40;;;1.10;;
31368;SDS011;18004;48.416;10.066;2023-07-28T09:22:22;1.90;;;1.23;;
31368;SDS011;18004;48.416;10.066;2023-07-28T09:24:49;3.15;;;1.50;;
31368;SDS011;18004;48.416;10.066;2023-07-28T09:27:23;5.57;;;1.27;;
31368;SDS011;18004;48.416;10.066;2023-07-28T09:29:55;1.10;;;1.00;;
31368;SDS011;18004;48.416;10.066;2023-07-28T09:32:31;1.73;;;1.17;;
31368;SDS011;18004;48.416;10.066;2023-07-28T09:35:06;2.35;;;1.15;;
31368;SDS011;18004;48.416;10.066;2023-07-28T09:41:36;1.65;;;1.15;;
31368;SDS011;18004;48.416;10.066;2023-07-28T09:45:05;1.77;;;1.08;;
31368;SDS011;18004;48.416;10.066;2023-07-28T11:52:08;1.83;;;0.80;;
31368;SDS011;18004;48.416;10.066;2023-07-28T13:17:04;2.90;;;1.10;;
31368;SDS011;18004;48.416;10.066;2023-07-28T13:19:30;0.85;;;0.70;;
31368;SDS011;18004;48.416;10.066;2023-07-28T13:21:56;1.42;;;0.90;;
31368;SDS011;18004;48.416;10.066;2023-07-28T13:24:22;0.88;;;0.52;;
31368;SDS011;18004;48.416;10.066;2023-07-28T13:27:00;0.77;;;0.57;;
31368;SDS011;18004;48.416;10.066;2023-07-28T13:29:29;1.00;;;0.80;;
31368;SDS011;18004;48.416;10.066;2023-07-28T13:32:43;1.10;;;0.80;;
31368;SDS011;18004;48.416;10.066;2023-07-28T13:38:50;6.90;;;0.73;;
31368;SDS011;18004;48.416;10.066;2023-07-28T14:01:16;3.83;;;0.90;;
31368;SDS011;18004;48.416;10.066;2023-07-28T14:03:53;1.27;;;0.80;;
31368;SDS011;18004;48.416;10.066;2023-07-28T14:06:52;1.52;;;0.80;;
31368;SDS011;18004;48.416;10.066;2023-07-28T14:09:47;1.42;;;0.98;;
31368;SDS011;18004;48.416;10.066;2023-07-28T14:20:25;1.40;;;0.65;;
31368;SDS011;18004;48.416;10.066;2023-07-28T14:23:24;1.70;;;1.10;;
31368;SDS011;18004;48.416;10.066;2023-07-28T14:26:06;1.98;;;0.80;;
31368;SDS011;18004;48.416;10.066;2023-07-28T14:29:02;3.25;;;1.00;;
31368;SDS011;18004;48.416;10.066;2023-07-28T14:35:16;0.88;;;0.80;;
31368;SDS011;18004;48.416;10.066;2023-07-28T14:37:48;2.97;;;0.82;;
31368;SDS011;18004;48.416;10.066;2023-07-28T14:40:27;1.27;;;0.77;;
31368;SDS011;18004;48.416;10.066;2023-07-28T14:43:14;1.48;;;0.85;;
31368;SDS011;18004;48.416;10.066;2023-07-28T14:45:58;1.50;;;0.98;;
31368;SDS011;18004;48.416;10.066;2023-07-28T14:49:07;0.70;;;0.70;;
31368;SDS011;18004;48.416;10.066;2023-07-28T14:51:43;1.52;;;0.85;;
31368;SDS011;18004;48.416;10.066;2023-07-28T14:54:37;0.70;;;0.70;;
31368;SDS011;18004;48.416;10.066;2023-07-28T15:00:42;0.95;;;0.88;;
31368;SDS011;18004;48.416;10.066;2023-07-28T15:03:43;1.75;;;0.70;;
31368;SDS011;18004;48.416;10.066;2023-07-28T15:06:52;2.05;;;0.80;;
31368;SDS011;18004;48.416;10.066;2023-07-28T15:09:19;1.05;;;0.95;;
31368;SDS011;18004;48.416;10.066;2023-07-28T15:11:56;1.30;;;0.80;;
31368;SDS011;18004;48.416;10.066;2023-07-28T15:14:25;0.98;;;0.88;;
31368;SDS011;18004;48.416;10.066;2023-07-28T15:31:54;1.42;;;0.70;;
31368;SDS011;18004;48.416;10.066;2023-07-28T15:34:25;1.25;;;0.80;;
31368;SDS011;18004;48.416;10.066;2023-07-28T15:58:12;1.45;;;1.02;;
31368;SDS011;18004;48.416;10.066;2023-07-28T16:05:45;1.42;;;0.93;;
31368;SDS011;18004;48.416;10.066;2023-07-28T16:47:52;1.90;;;1.05;;
31368;SDS011;18004;48.416;10.066;2023-07-28T17:07:37;3.90;;;1.10;;
31368;SDS011;18004;48.416;10.066;2023-07-28T17:10:02;2.33;;;0.90;;
31368;SDS011;18004;48.416;10.066;2023-07-28T17:12:28;2.95;;;0.82;;
31368;SDS011;18004;48.416;10.066;2023-07-28T17:14:54;1.10;;;0.55;;
31368;SDS011;18004;48.416;10.066;2023-07-28T17:17:26;1.50;;;0.70;;
31368;SDS011;18004;48.416;10.066;2023-07-28T17:27:37;0.68;;;0.68;;
31368;SDS011;18004;48.416;10.066;2023-07-28T17:33:57;1.25;;;0.43;;
31368;SDS011;18004;48.416;10.066;2023-07-28T17:36:47;2.45;;;0.70;;
31368;SDS011;18004;48.416;10.066;2023-07-28T17:39:32;0.45;;;0.45;;
31368;SDS011;18004;48.416;10.066;2023-07-28T17:42:47;2.42;;;1.08;;
31368;SDS011;18004;48.416;10.066;2023-07-28T17:45:43;1.80;;;0.80;;
31368;SDS011;18004;48.416;10.066;2023-07-28T17:48:20;1.85;;;0.70;;
31368;SDS011;18004;48.416;10.066;2023-07-28T17:50:49;1.02;;;0.82;;
31368;SDS011;18004;48.416;10.066;2023-07-28T17:53:22;1.63;;;0.88;;
31368;SDS011;18004;48.416;10.066;2023-07-28T17:55:49;1.67;;;0.90;;
31368;SDS011;18004;48.416;10.066;2023-07-28T17:58:18;2.08;;;0.90;;
31368;SDS011;18004;48.416;10.066;2023-07-28T18:04:13;0.68;;;0.60;;
31368;SDS011;18004;48.416;10.066;2023-07-28T18:06:48;1.67;;;0.70;;
31368;SDS011;18004;48.416;10.066;2023-07-28T18:09:14;0.90;;;0.60;;
31368;SDS011;18004;48.416;10.066;2023-07-28T18:11:46;0.60;;;0.60;;
31368;SDS011;18004;48.416;10.066;2023-07-28T18:14:15;1.27;;;0.90;;
31368;SDS011;18004;48.416;10.066;2023-07-28T18:17:01;1.15;;;1.05;;
31368;SDS011;18004;48.416;10.066;2023-07-28T18:19:27;23.52;;;6.35;;
31368;SDS011;18004;48.416;10.066;2023-07-28T18:21:52;15.73;;;3.53;;
31368;SDS011;18004;48.416;10.066;2023-07-28T18:24:18;6.43;;;1.05;;
31368;SDS011;18004;48.416;10.066;2023-07-28T18:26:51;1.65;;;0.90;;
31368;SDS011;18004;48.416;10.066;2023-07-28T18:29:17;4.45;;;1.42;;
31368;SDS011;18004;48.416;10.066;2023-07-28T18:31:43;3.83;;;0.82;;
31368;SDS011;18004;48.416;10.066;2023-07-28T18:34:09;2.65;;;1.20;;
31368;SDS011;18004;48.416;10.066;2023-07-28T18:37:13;19.38;;;4.20;;
31368;SDS011;18004;48.416;10.066;2023-07-28T18:40:26;26.08;;;10.00;;
31368;SDS011;18004;48.416;10.066;2023-07-28T19:08:50;1.00;;;0.85;;
31368;SDS011;18004;48.416;10.066;2023-07-28T19:12:01;6.90;;;1.10;;
31368;SDS011;18004;48.416;10.066;2023-07-28T19:14:30;1.45;;;1.02;;
31368;SDS011;18004;48.416;10.066;2023-07-28T19:23:50;0.88;;;0.70;;
31368;SDS011;18004;48.416;10.066;2023-07-28T19:36:59;3.58;;;1.15;;
31368;SDS011;18004;48.416;10.066;2023-07-28T19:46:57;4.03;;;1.00;;
31368;SDS011;18004;48.416;10.066;2023-07-28T19:57:08;1.80;;;1.23;;
31368;SDS011;18004;48.416;10.066;2023-07-28T19:59:34;1.15;;;0.88;;
31368;SDS011;18004;48.416;10.066;2023-07-28T20:02:00;3.17;;;1.17;;
31368;SDS011;18004;48.416;10.066;2023-07-28T20:04:33;3.53;;;1.20;;
31368;SDS011;18004;48.416;10.066;2023-07-28T20:15:26;1.35;;;0.88;;
31368;SDS011;18004;48.416;10.066;2023-07-28T20:18:51;4.85;;;1.63;;
31368;SDS011;18004;48.416;10.066;2023-07-28T20:22:25;3.67;;;1.60;;
31368;SDS011;18004;48.416;10.066;2023-07-28T20:29:15;2.95;;;1.40;;
31368;SDS011;18004;48.416;10.066;2023-07-28T21:17:48;2.35;;;0.88;;
31368;SDS011;18004;48.416;10.066;2023-07-28T21:21:06;2.22;;;1.30;;
31368;SDS011;18004;48.416;10.066;2023-07-28T21:23:59;5.45;;;1.30;;
31368;SDS011;18004;48.416;10.066;2023-07-28T21:26:25;2.20;;;1.10;;
31368;SDS011;18004;48.416;10.066;2023-07-28T21:28:51;3.17;;;1.20;;
31368;SDS011;18004;48.416;10.066;2023-07-28T21:31:23;6.30;;;1.35;;
31368;SDS011;18004;48.416;10.066;2023-07-28T21:34:26;2.17;;;1.38;;
31368;SDS011;18004;48.416;10.066;2023-07-28T21:37:26;1.35;;;1.20;;
31368;SDS011;18004;48.416;10.066;2023-07-28T22:13:01;1.83;;;1.30;;
31368;SDS011;18004;48.416;10.066;2023-07-28T22:15:39;1.48;;;1.05;;
31368;SDS011;18004;48.416;10.066;2023-07-28T22:18:20;2.53;;;1.20;;
31368;SDS011;18004;48.416;10.066;2023-07-28T22:21:14;3.95;;;1.20;;
31368;SDS011;18004;48.416;10.066;2023-07-28T22:23:47;1.98;;;1.40;;
31368;SDS011;18004;48.416;10.066;2023-07-28T22:26:12;2.08;;;1.40;;
31368;SDS011;18004;48.416;10.066;2023-07-28T22:29:20;6.03;;;1.70;;
31368;SDS011;18004;48.416;10.066;2023-07-28T22:38:44;4.15;;;1.48;;
31368;SDS011;18004;48.416;10.066;2023-07-28T22:48:38;6.20;;;1.52;;
31368;SDS011;18004;48.416;10.066;2023-07-28T22:51:22;3.50;;;1.48;;
31368;SDS011;18004;48.416;10.066;2023-07-28T22:53:48;2.40;;;1.38;;
31368;SDS011;18004;48.416;10.066;2023-07-28T22:56:17;2.90;;;1.40;;
31368;SDS011;18004;48.416;10.066;2023-07-28T23:05:59;9.60;;;1.63;;
31368;SDS011;18004;48.416;10.066;2023-07-28T23:08:50;2.55;;;1.63;;
31368;SDS011;18004;48.416;10.066;2023-07-28T23:11:43;5.07;;;1.55;;
31368;SDS011;18004;48.416;10.066;2023-07-28T23:14:12;2.25;;;1.90;;
31368;SDS011;18004;48.416;10.066;2023-07-28T23:16:38;2.45;;;1.85;;
31368;SDS011;18004;48.416;10.066;2023-07-28T23:19:04;3.10;;;1.70;;
31368;SDS011;18004;48.416;10.066;2023-07-28T23:21:30;3.17;;;2.28;;
31368;SDS011;18004;48.416;10.066;2023-07-28T23:23:56;2.45;;;1.95;;
31368;SDS011;18004;48.416;10.066;2023-07-28T23:26:22;3.85;;;1.77;;
31368;SDS011;18004;48.416;10.066;2023-07-28T23:28:48;5.20;;;1.73;;
31368;SDS011;18004;48.416;10.066;2023-07-28T23:31:15;2.42;;;1.83;;
31368;SDS011;18004;48.416;10.066;2023-07-28T23:33:43;2.55;;;1.80;;
31368;SDS011;18004;48.416;10.066;2023-07-28T23:36:10;4.63;;;1.83;;
31368;SDS011;18004;48.416;10.066;2023-07-28T23:38:36;3.78;;;1.75;;
31368;SDS011;18004;48.416;10.066;2023-07-28T23:41:03;2.70;;;2.00;;
31368;SDS011;18004;48.416;10.066;2023-07-28T23:43:29;2.72;;;1.90;;
31368;SDS011;18004;48.416;10.066;2023-07-28T23:45:54;4.68;;;1.73;;
31368;SDS011;18004;48.416;10.066;2023-07-28T23:48:27;4.55;;;2.30;;
31368;SDS011;18004;48.416;10.066;2023-07-28T23:50:53;2.50;;;1.75;;
31368;SDS011;18004;48.416;10.066;2023-07-28T23:53:20;7.80;;;2.08;;
31368;SDS011;18004;48.416;10.066;2023-07-28T23:55:47;2.33;;;1.77;;
31368;SDS011;18004;48.416;10.066;2023-07-28T23:58:14;3.35;;;2.22;;
